This is the latest recevied weather packets stored in our database for station/object MIDVIL-WX. If no packets are shown the sender has not sent any weather packets the latest 10 day(s).
| Time | Temp. | Humidity | Pressure | Rain* | Wind** | Luminosity | Snow |
|---|---|---|---|---|---|---|---|
| 1777675525 | 6.11° C | 59% | 989.8 hPa | 0 mm | - | - | - |
| 1777674644 | 6.67° C | 59% | 990.8 hPa | 0 mm | - | - | - |
| 1777673725 | 6.67° C | 59% | 990.8 hPa | 0 mm | - | - | - |
| 1777672852 | 6.67° C | 59% | 990.8 hPa | 0 mm | - | - | - |
| 1777671925 | 6.11° C | 64% | 990 hPa | 0 mm | - | - | - |
| 1777671039 | 6.11° C | 70% | 990.4 hPa | 0 mm | - | - | - |
| 1777670125 | 5.56° C | 70% | 990.4 hPa | 0.25 mm | - | - | - |
| 1777669251 | 5.56° C | 70% | 990.4 hPa | 0.25 mm | - | - | - |
| 1777668325 | 7.22° C | 57% | 989.8 hPa | 0 mm | - | - | - |
| 1777667442 | 7.22° C | 58% | 989.9 hPa | 0 mm | - | - | - |
| 1777666526 | 6.67° C | 58% | 989.9 hPa | 0 mm | - | - | - |
| 1777665651 | 6.67° C | 58% | 989.9 hPa | 0 mm | - | - | - |
| 1777664724 | 6.67° C | 57% | 989.7 hPa | 0 mm | - | - | - |
| 1777663842 | 7.22° C | 57% | 989.7 hPa | 0 mm | - | - | - |
| 1777662925 | 7.22° C | 57% | 989.7 hPa | 0 mm | - | - | - |
| 1777662047 | 7.22° C | 57% | 989.7 hPa | 0 mm | - | - | - |
| 1777661126 | 7.22° C | 59% | 989.3 hPa | 0 mm | - | - | - |
| 1777660241 | 7.22° C | 60% | 989.5 hPa | 0 mm | - | - | - |
| 1777659325 | 6.67° C | 60% | 989.5 hPa | 0 mm | - | - | - |
| 1777658452 | 7.22° C | 60% | 989.5 hPa | 0 mm | - | - | - |
| 1777657525 | 7.22° C | 57% | 990.4 hPa | 0 mm | - | - | - |
| 1777656641 | 7.22° C | 56% | 989.7 hPa | 0 mm | - | - | - |
| 1777655725 | 7.22° C | 56% | 989.8 hPa | 0 mm | - | - | - |
| 1777654851 | 7.22° C | 56% | 989.8 hPa | 0 mm | - | - | - |
| 1777653925 | 7.22° C | 57% | 988.5 hPa | 0 mm | - | - | - |
* Rain latest hour (hover to see other rain measurements)
** Current wind speed in m/s (hover to see current wind gust speed)